createdAt,value
2022-12-04T00:01:11.976Z,102125.25
2022-12-04T00:03:38.757Z,102109.75
2022-12-04T00:06:10.749Z,102119.25
2022-12-04T00:08:37.553Z,102121.00
2022-12-04T00:11:05.575Z,102119.22
2022-12-04T00:13:32.527Z,102123.47
2022-12-04T00:15:59.273Z,102128.69
2022-12-04T00:18:25.677Z,102116.56
2022-12-04T00:20:52.233Z,102120.06
2022-12-04T00:23:18.604Z,102111.38
2022-12-04T00:25:48.655Z,102107.88
2022-12-04T00:28:19.176Z,102111.38
2022-12-04T00:30:45.977Z,102106.19
2022-12-04T00:33:13.859Z,102094.97
2022-12-04T00:35:40.825Z,102095.81
2022-12-04T00:38:07.551Z,102094.97
2022-12-04T00:40:34.125Z,102093.22
2022-12-04T00:43:00.926Z,102098.41
2022-12-04T00:45:27.443Z,102095.78
2022-12-04T00:47:53.923Z,102097.47
2022-12-04T00:50:20.337Z,102101.75
2022-12-04T00:52:46.863Z,102092.28
2022-12-04T00:55:13.193Z,102102.59
2022-12-04T00:57:39.687Z,102095.72
2022-12-04T01:00:07.172Z,102093.97
2022-12-04T01:02:33.650Z,102094.00
2022-12-04T01:05:01.329Z,102088.78
2022-12-04T01:07:27.947Z,102096.59
2022-12-04T01:09:54.552Z,102093.13
2022-12-04T01:12:21.286Z,102090.47
2022-12-04T01:14:47.654Z,102099.16
2022-12-04T01:17:14.150Z,102092.28
2022-12-04T01:19:40.589Z,102092.19
2022-12-04T01:22:06.909Z,102098.25
2022-12-04T01:24:33.374Z,102092.19
2022-12-04T01:26:59.746Z,102093.03
2022-12-04T01:29:26.197Z,102089.59
2022-12-04T01:31:52.674Z,102091.34
2022-12-04T01:34:19.232Z,102089.53
2022-12-04T01:36:45.624Z,102087.84
2022-12-04T01:39:12.270Z,102093.97
2022-12-04T01:41:38.749Z,102093.06
2022-12-04T01:44:16.354Z,102087.09
2022-12-04T01:46:45.685Z,102083.59
2022-12-04T01:49:20.646Z,102089.63
2022-12-04T01:51:56.043Z,102085.28
2022-12-04T01:54:34.105Z,102093.97
2022-12-04T01:57:11.564Z,102088.69
2022-12-04T01:59:45.396Z,102098.22
2022-12-04T02:02:15.001Z,102099.97
2022-12-04T02:04:42.601Z,102089.63
2022-12-04T02:07:09.725Z,102089.53
2022-12-04T02:09:39.300Z,102093.88
2022-12-04T02:12:32.726Z,102095.56
2022-12-04T02:15:09.277Z,102097.31
2022-12-04T02:17:48.251Z,102106.84
2022-12-04T02:20:29.969Z,102095.56
2022-12-04T02:23:08.372Z,102090.38
2022-12-04T02:25:44.063Z,102094.72
2022-12-04T02:28:36.642Z,102089.53
2022-12-04T02:31:07.338Z,102086.84
2022-12-04T02:33:48.464Z,102096.28
2022-12-04T02:36:28.750Z,102090.34
2022-12-04T02:38:55.065Z,102088.63
2022-12-04T02:41:33.935Z,102089.47
2022-12-04T02:44:32.584Z,102084.34
2022-12-04T02:47:03.888Z,102086.84
2022-12-04T02:49:40.238Z,102087.75
2022-12-04T02:52:11.441Z,102074.72
2022-12-04T02:54:42.296Z,102077.31
2022-12-04T02:57:15.882Z,102085.91
2022-12-04T02:59:45.181Z,102078.16
2022-12-04T03:02:25.524Z,102069.56
2022-12-04T03:04:55.885Z,102075.56
2022-12-04T03:07:36.619Z,102077.25
2022-12-04T03:10:09.162Z,102076.47
2022-12-04T03:12:41.275Z,102067.78
2022-12-04T03:15:18.059Z,102066.03
2022-12-04T03:17:58.364Z,102060.03
2022-12-04T03:20:25.533Z,102060.03
2022-12-04T03:22:59.469Z,102056.59
2022-12-04T03:25:32.525Z,102060.00
2022-12-04T03:28:04.491Z,102055.69
2022-12-04T03:30:39.311Z,102052.22
2022-12-04T03:33:39.592Z,102054.81
2022-12-04T03:36:16.319Z,102050.50
2022-12-04T03:38:50.078Z,102047.97
2022-12-04T03:41:36.476Z,102043.63
2022-12-04T03:44:17.778Z,102047.91
2022-12-04T03:47:07.481Z,102050.50
2022-12-04T03:49:46.830Z,102052.22
2022-12-04T03:52:20.858Z,102052.22
2022-12-04T03:54:53.586Z,102057.41
2022-12-04T03:57:27.969Z,102055.69
2022-12-04T04:00:02.060Z,102059.94
2022-12-04T04:02:34.531Z,102053.91
2022-12-04T04:05:02.962Z,102051.31
2022-12-04T04:07:37.138Z,102053.91
2022-12-04T04:10:11.231Z,102054.75
2022-12-04T04:12:43.099Z,102057.34
2022-12-04T04:15:32.299Z,102055.66
2022-12-04T04:18:20.023Z,102059.03
2022-12-04T04:21:11.304Z,102054.81
2022-12-04T04:24:01.752Z,102051.31
2022-12-04T04:26:31.981Z,102047.88
2022-12-04T04:28:58.386Z,102050.44
2022-12-04T04:31:42.551Z,102051.31
2022-12-04T04:34:18.352Z,102053.91
2022-12-04T04:36:58.236Z,102043.53
2022-12-04T04:39:50.885Z,102047.88
2022-12-04T04:42:55.451Z,102053.91
2022-12-04T04:45:36.126Z,102049.56
2022-12-04T04:48:09.268Z,102057.41
2022-12-04T04:50:37.222Z,102052.22
2022-12-04T04:53:08.217Z,102045.31
2022-12-04T04:55:35.283Z,102048.81
2022-12-04T04:58:16.870Z,102053.09
2022-12-04T05:00:54.378Z,102043.63
2022-12-04T05:03:20.769Z,102048.81
2022-12-04T05:05:47.201Z,102050.50
2022-12-04T05:08:13.564Z,102048.81
2022-12-04T05:10:40.024Z,102052.22
2022-12-04T05:13:06.436Z,102043.63
2022-12-04T05:15:32.902Z,102050.50
2022-12-04T05:17:59.231Z,102054.91
2022-12-04T05:20:25.587Z,102055.69
2022-12-04T05:22:51.900Z,102045.31
2022-12-04T05:25:18.226Z,102055.69
2022-12-04T05:27:44.636Z,102065.19
2022-12-04T05:30:11.742Z,102064.28
2022-12-04T05:32:38.258Z,102057.41
2022-12-04T05:35:10.598Z,102067.78
2022-12-04T05:37:39.223Z,102063.44
2022-12-04T05:40:06.991Z,102074.66
2022-12-04T05:42:33.606Z,102069.41
2022-12-04T05:45:00.142Z,102067.72
2022-12-04T05:47:26.518Z,102068.63
2022-12-04T05:49:53.034Z,102069.47
2022-12-04T05:52:19.533Z,102059.09
2022-12-04T05:54:45.919Z,102060.88
2022-12-04T05:57:12.269Z,102061.75
2022-12-04T05:59:38.758Z,102057.41
2022-12-04T06:02:05.192Z,102062.59
2022-12-04T06:04:31.713Z,102053.91
2022-12-04T06:06:58.087Z,102057.41
2022-12-04T06:09:24.507Z,102048.72
2022-12-04T06:11:50.822Z,102046.16
2022-12-04T06:14:17.235Z,102056.50
2022-12-04T06:16:45.754Z,102052.22
2022-12-04T06:19:15.660Z,102054.75
2022-12-04T06:21:43.810Z,102057.34
2022-12-04T06:24:16.206Z,102061.69
2022-12-04T06:27:03.923Z,102057.34
2022-12-04T06:29:28.973Z,102057.25
2022-12-04T06:31:55.366Z,102056.34
2022-12-04T06:34:21.824Z,102060.66
2022-12-04T06:36:48.151Z,102059.78
2022-12-04T06:39:18.708Z,102072.75
2022-12-04T06:41:47.296Z,102068.44
2022-12-04T06:44:15.521Z,102066.72
2022-12-04T06:46:46.524Z,102066.72
2022-12-04T06:49:13.725Z,102061.53
2022-12-04T06:51:40.848Z,102064.13
2022-12-04T06:54:07.634Z,102065.84
2022-12-04T06:56:34.805Z,102063.22
2022-12-04T06:59:02.970Z,102066.66
2022-12-04T07:01:32.207Z,102064.03
2022-12-04T07:04:00.880Z,102065.78
2022-12-04T07:06:30.716Z,102062.38
2022-12-04T07:09:03.402Z,102059.78
2022-12-04T07:11:29.976Z,102062.38
2022-12-04T07:13:56.555Z,102063.25
2022-12-04T07:16:25.592Z,102076.16
2022-12-04T07:18:53.845Z,102066.66
2022-12-04T07:21:22.680Z,102074.47
2022-12-04T07:23:51.409Z,102080.44
2022-12-04T07:26:18.963Z,102075.25
2022-12-04T07:28:45.689Z,102069.22
2022-12-04T07:31:18.161Z,102071.81
2022-12-04T07:33:45.439Z,102076.16
2022-12-04T07:36:14.417Z,102077.84
2022-12-04T07:38:41.187Z,102075.25
2022-12-04T07:41:10.686Z,102068.31
2022-12-04T07:43:37.225Z,102067.47
2022-12-04T07:46:09.405Z,102076.06
2022-12-04T07:48:35.786Z,102076.06
2022-12-04T07:51:04.627Z,102081.25
2022-12-04T07:53:31.409Z,102079.50
2022-12-04T07:55:57.819Z,102072.50
2022-12-04T07:58:24.173Z,102079.41
2022-12-04T08:00:50.579Z,102075.91
2022-12-04T08:03:16.977Z,102075.91
2022-12-04T08:05:43.335Z,102081.94
2022-12-04T08:08:09.729Z,102081.88
2022-12-04T08:10:36.058Z,102086.22
2022-12-04T08:13:02.413Z,102082.72
2022-12-04T08:15:28.775Z,102086.13
2022-12-04T08:17:55.133Z,102095.66
2022-12-04T08:20:21.558Z,102098.22
2022-12-04T08:22:48.439Z,102090.44
2022-12-04T08:25:14.904Z,102098.16
2022-12-04T08:27:47.690Z,102103.34
2022-12-04T08:30:14.386Z,102092.13
2022-12-04T08:32:40.889Z,102101.56
2022-12-04T08:35:07.562Z,102098.09
2022-12-04T08:37:33.869Z,102101.56
2022-12-04T08:40:00.260Z,102109.28
2022-12-04T08:42:26.655Z,102114.41
2022-12-04T08:44:52.998Z,102110.09
2022-12-04T08:47:19.377Z,102116.06
2022-12-04T08:49:45.709Z,102111.78
2022-12-04T08:52:12.050Z,102114.38
2022-12-04T08:54:38.449Z,102116.06
2022-12-04T08:57:04.811Z,102122.09
2022-12-04T08:59:31.209Z,102118.66
2022-12-04T09:01:57.583Z,102117.88
2022-12-04T09:04:24.002Z,102121.41
2022-12-04T09:06:50.443Z,102123.16
2022-12-04T09:09:16.908Z,102117.13
2022-12-04T09:11:46.377Z,102112.88
2022-12-04T09:14:13.850Z,102115.53
2022-12-04T09:16:40.190Z,102116.38
2022-12-04T09:19:06.559Z,102115.53
2022-12-04T09:21:32.993Z,102117.28
2022-12-04T09:24:00.093Z,102112.94
2022-12-04T09:26:29.215Z,102115.44
2022-12-04T09:28:58.664Z,102117.13
2022-12-04T09:31:25.975Z,102116.28
2022-12-04T09:33:53.157Z,102120.56
2022-12-04T09:36:19.964Z,102117.09
2022-12-04T09:38:49.253Z,102119.69
2022-12-04T09:41:27.803Z,102121.47
2022-12-04T09:44:00.345Z,102115.38
2022-12-04T09:46:31.690Z,102107.59
2022-12-04T09:49:03.124Z,102108.44
2022-12-04T09:51:32.013Z,102115.38
2022-12-04T09:54:19.634Z,102120.56
2022-12-04T09:56:54.198Z,102115.38
2022-12-04T09:59:26.551Z,102100.63
2022-12-04T10:02:03.257Z,102109.28
2022-12-04T10:04:30.515Z,102101.50
2022-12-04T10:07:22.415Z,102106.69
2022-12-04T10:09:56.154Z,102105.69
2022-12-04T10:12:36.549Z,102088.34
2022-12-04T10:15:26.298Z,102096.09
2022-12-04T10:18:25.719Z,102104.72
2022-12-04T10:21:09.643Z,102101.16
2022-12-04T10:23:48.609Z,102102.88
2022-12-04T10:26:17.936Z,102099.38
2022-12-04T10:28:55.420Z,102111.47
2022-12-04T10:31:23.207Z,102106.16
2022-12-04T10:34:01.512Z,102092.31
2022-12-04T10:36:34.125Z,102102.72
2022-12-04T10:39:07.149Z,102105.22
2022-12-04T10:42:01.605Z,102103.47
2022-12-04T10:44:28.053Z,102103.47
2022-12-04T10:47:03.003Z,102104.31
2022-12-04T10:49:34.160Z,102101.72
2022-12-04T10:52:00.830Z,102104.31
2022-12-04T10:54:43.757Z,102096.53
2022-12-04T10:57:12.075Z,102085.22
2022-12-04T10:59:56.769Z,102093.84
2022-12-04T11:02:32.731Z,102090.41
2022-12-04T11:05:03.432Z,102093.75
2022-12-04T11:07:43.366Z,102090.25
2022-12-04T11:10:24.740Z,102079.81
2022-12-04T11:13:01.547Z,102077.28
2022-12-04T11:15:28.408Z,102081.56
2022-12-04T11:17:54.850Z,102071.19
2022-12-04T11:20:25.173Z,102076.19
2022-12-04T11:22:56.969Z,102069.25
2022-12-04T11:25:27.291Z,102074.34
2022-12-04T11:28:00.525Z,102073.44
2022-12-04T11:30:38.411Z,102069.13
2022-12-04T11:33:15.645Z,102068.28
2022-12-04T11:35:42.463Z,102061.38
2022-12-04T11:38:16.050Z,102066.59
2022-12-04T11:40:54.869Z,102067.34
2022-12-04T11:43:25.171Z,102053.47
2022-12-04T11:46:02.382Z,102048.97
2022-12-04T11:48:30.649Z,102050.69
2022-12-04T11:51:33.509Z,102049.69
2022-12-04T11:54:18.704Z,102037.72
2022-12-04T11:56:58.341Z,102029.09
2022-12-04T11:59:37.713Z,102031.63
2022-12-04T12:02:25.843Z,102027.31
2022-12-04T12:05:13.464Z,102016.81
2022-12-04T12:08:02.810Z,102022.00
2022-12-04T12:10:44.632Z,102020.22
2022-12-04T12:14:21.991Z,102005.53
2022-12-04T12:17:21.740Z,102012.28
2022-12-04T12:20:14.748Z,102014.84
2022-12-04T12:22:52.537Z,102014.84
2022-12-04T12:25:21.362Z,102013.94
2022-12-04T12:28:04.999Z,102008.72
2022-12-04T12:30:58.954Z,102016.44
2022-12-04T12:33:34.546Z,102007.75
2022-12-04T12:36:08.905Z,102008.66
2022-12-04T12:38:43.926Z,102000.84
2022-12-04T12:41:16.463Z,102006.06
2022-12-04T12:43:48.543Z,102008.53
2022-12-04T12:46:20.726Z,102008.53
2022-12-04T12:49:05.614Z,102006.72
2022-12-04T12:51:41.085Z,102004.06
2022-12-04T12:54:35.049Z,102007.47
2022-12-04T12:57:11.893Z,102002.25
2022-12-04T12:59:44.254Z,102000.50
2022-12-04T13:02:30.244Z,102000.38
2022-12-04T13:05:06.989Z,101995.09
2022-12-04T13:07:45.763Z,102008.88
2022-12-04T13:10:19.232Z,102003.78
2022-12-04T13:12:56.885Z,102001.16
2022-12-04T13:15:31.469Z,101994.28
2022-12-04T13:17:59.058Z,101987.38
2022-12-04T13:20:30.338Z,101986.47
2022-12-04T13:23:11.663Z,101986.47
2022-12-04T13:26:10.857Z,101993.44
2022-12-04T13:29:15.773Z,101987.44
2022-12-04T13:31:57.596Z,101977.88
2022-12-04T13:34:45.249Z,101981.38
2022-12-04T13:37:39.332Z,101977.88
2022-12-04T13:40:14.428Z,101986.47
2022-12-04T13:42:41.621Z,101983.09
2022-12-04T13:45:23.810Z,101986.47
2022-12-04T13:47:58.523Z,101981.38
2022-12-04T13:50:29.790Z,101982.19
2022-12-04T13:52:56.906Z,101987.31
2022-12-04T13:55:25.366Z,101983.09
2022-12-04T13:58:00.288Z,101994.31
2022-12-04T14:00:33.654Z,101988.28
2022-12-04T14:03:21.348Z,101989.97
2022-12-04T14:05:48.433Z,102003.88
2022-12-04T14:08:23.822Z,102000.44
2022-12-04T14:11:15.209Z,102003.94
2022-12-04T14:13:48.985Z,102005.69
2022-12-04T14:16:22.721Z,102008.31
2022-12-04T14:18:53.334Z,102010.91
2022-12-04T14:21:19.828Z,102002.25
2022-12-04T14:23:46.357Z,102000.56
2022-12-04T14:26:21.186Z,102004.06
2022-12-04T14:28:48.819Z,102010.16
2022-12-04T14:31:37.397Z,101998.88
2022-12-04T14:34:24.414Z,102003.28
2022-12-04T14:36:53.838Z,101997.25
2022-12-04T14:39:33.554Z,101999.06
2022-12-04T14:42:14.689Z,102011.13
2022-12-04T14:44:41.445Z,102002.44
2022-12-04T14:47:38.318Z,102005.03
2022-12-04T14:50:26.730Z,102003.31
2022-12-04T14:53:03.193Z,102013.81
2022-12-04T14:55:44.527Z,102004.25
2022-12-04T14:58:30.610Z,102006.06
2022-12-04T15:00:59.901Z,102006.06
2022-12-04T15:03:30.115Z,102011.25
2022-12-04T15:06:08.772Z,102006.06
2022-12-04T15:08:35.279Z,102001.72
2022-12-04T15:11:20.127Z,102000.84
2022-12-04T15:13:46.543Z,102000.00
2022-12-04T15:16:19.051Z,101996.50
2022-12-04T15:18:55.575Z,102000.84
2022-12-04T15:21:43.581Z,102008.66
2022-12-04T15:24:19.439Z,102005.22
2022-12-04T15:26:47.528Z,102006.06
2022-12-04T15:29:19.983Z,101995.66
2022-12-04T15:31:53.337Z,102004.31
2022-12-04T15:34:22.514Z,102003.47
2022-12-04T15:37:02.938Z,102006.13
2022-12-04T15:39:32.126Z,102000.84
2022-12-04T15:42:06.786Z,102018.16
2022-12-04T15:44:35.245Z,102007.69
2022-12-04T15:47:15.012Z,102018.03
2022-12-04T15:49:41.403Z,102019.78
2022-12-04T15:52:10.562Z,102018.88
2022-12-04T15:54:41.449Z,102025.75
2022-12-04T15:57:22.744Z,102025.75
2022-12-04T15:59:53.671Z,102021.34
2022-12-04T16:02:25.089Z,102025.66
2022-12-04T16:04:51.498Z,102026.47
2022-12-04T16:07:22.525Z,102019.47
2022-12-04T16:10:04.759Z,102031.56
2022-12-04T16:12:33.031Z,102027.16
2022-12-04T16:14:59.413Z,102034.88
2022-12-04T16:17:34.051Z,102032.25
2022-12-04T16:20:04.059Z,102039.97
2022-12-04T16:22:31.359Z,102033.91
2022-12-04T16:24:58.065Z,102040.81
2022-12-04T16:27:25.570Z,102039.00
2022-12-04T16:29:52.670Z,102038.09
2022-12-04T16:32:21.333Z,102031.97
2022-12-04T16:34:48.110Z,102024.16
2022-12-04T16:37:20.648Z,102022.31
2022-12-04T16:39:47.425Z,102022.31
2022-12-04T16:42:24.851Z,102021.41
2022-12-04T16:44:51.262Z,102028.28
2022-12-04T16:47:18.662Z,102033.41
2022-12-04T16:49:50.500Z,102036.03
2022-12-04T16:52:17.896Z,102033.38
2022-12-04T16:54:44.253Z,102039.41
2022-12-04T16:57:10.635Z,102030.63
2022-12-04T16:59:37.357Z,102033.13
2022-12-04T17:02:13.804Z,102035.63
2022-12-04T17:04:40.374Z,102021.72
2022-12-04T17:07:06.761Z,102021.59
2022-12-04T17:09:33.134Z,102028.50
2022-12-04T17:11:59.455Z,102025.03
2022-12-04T17:14:25.816Z,102025.81
2022-12-04T17:16:54.233Z,102028.41
2022-12-04T17:19:20.646Z,102030.13
2022-12-04T17:21:47.392Z,102025.81
2022-12-04T17:24:13.775Z,102030.13
2022-12-04T17:26:40.159Z,102029.16
2022-12-04T17:29:06.480Z,102023.94
2022-12-04T17:31:32.829Z,102031.72
2022-12-04T17:33:59.343Z,102039.44
2022-12-04T17:36:27.490Z,102041.13
2022-12-04T17:38:56.474Z,102029.78
2022-12-04T17:41:23.396Z,102036.63
2022-12-04T17:43:50.037Z,102046.19
2022-12-04T17:46:20.394Z,102045.22
2022-12-04T17:48:48.343Z,102045.22
2022-12-04T17:51:17.933Z,102047.78
2022-12-04T17:53:44.721Z,102052.88
2022-12-04T17:56:14.074Z,102046.72
2022-12-04T17:58:40.467Z,102047.63
2022-12-04T18:01:16.142Z,102042.38
2022-12-04T18:03:43.839Z,102042.34
2022-12-04T18:06:29.818Z,102041.44
2022-12-04T18:08:56.420Z,102050.03
2022-12-04T18:11:26.878Z,102055.22
2022-12-04T18:14:11.675Z,102053.53
2022-12-04T18:16:44.648Z,102060.44
2022-12-04T18:19:11.633Z,102050.03
2022-12-04T18:21:38.113Z,102058.66
2022-12-04T18:24:05.884Z,102061.28
2022-12-04T18:26:34.756Z,102068.25
2022-12-04T18:29:01.568Z,102065.63
2022-12-04T18:31:28.034Z,102060.44
2022-12-04T18:33:54.394Z,102061.34
2022-12-04T18:36:23.697Z,102070.06
2022-12-04T18:39:03.376Z,102075.19
2022-12-04T18:41:30.336Z,102071.75
2022-12-04T18:43:57.432Z,102064.06
2022-12-04T18:46:24.805Z,102069.25
2022-12-04T18:48:55.657Z,102070.13
2022-12-04T18:51:28.767Z,102060.63
2022-12-04T18:54:00.697Z,102059.84
2022-12-04T18:56:27.795Z,102062.44
2022-12-04T18:58:59.941Z,102064.16
2022-12-04T19:01:27.595Z,102071.16
2022-12-04T19:03:59.593Z,102060.75
2022-12-04T19:06:31.169Z,102062.56
2022-12-04T19:09:00.609Z,102066.03
2022-12-04T19:11:27.570Z,102067.84
2022-12-04T19:13:53.982Z,102065.31
2022-12-04T19:16:20.447Z,102067.84
2022-12-04T19:18:47.579Z,102062.75
2022-12-04T19:21:15.214Z,102064.47
2022-12-04T19:23:42.838Z,102061.91
2022-12-04T19:26:09.332Z,102061.91
2022-12-04T19:28:35.959Z,102062.75
2022-12-04T19:31:02.495Z,102052.34
2022-12-04T19:33:29.351Z,102058.34
2022-12-04T19:35:57.740Z,102067.00
2022-12-04T19:38:24.934Z,102066.03
2022-12-04T19:41:15.203Z,102059.13
2022-12-04T19:43:44.699Z,102067.75
2022-12-04T19:46:13.782Z,102068.56
2022-12-04T19:48:40.780Z,102066.81
2022-12-04T19:51:12.840Z,102070.25
2022-12-04T19:53:41.317Z,102062.44
2022-12-04T19:56:20.369Z,102061.59
2022-12-04T19:58:47.705Z,102065.84
2022-12-04T20:01:16.931Z,102057.25
2022-12-04T20:03:43.577Z,102068.41
2022-12-04T20:06:16.057Z,102074.47
2022-12-04T20:08:42.642Z,102070.13
2022-12-04T20:11:16.861Z,102071.81
2022-12-04T20:13:44.914Z,102074.34
2022-12-04T20:16:14.193Z,102067.44
2022-12-04T20:18:41.486Z,102067.44
2022-12-04T20:21:12.214Z,102076.06
2022-12-04T20:23:44.005Z,102071.66
2022-12-04T20:26:13.875Z,102069.06
2022-12-04T20:28:41.194Z,102064.72
2022-12-04T20:31:16.222Z,102060.34
2022-12-04T20:33:44.233Z,102066.41
2022-12-04T20:36:12.221Z,102057.69
2022-12-04T20:38:39.595Z,102058.53
2022-12-04T20:41:07.604Z,102066.28
2022-12-04T20:43:34.068Z,102060.22
2022-12-04T20:46:00.429Z,102062.78
2022-12-04T20:48:27.569Z,102058.44
2022-12-04T20:50:54.061Z,102061.84
2022-12-04T20:53:20.428Z,102063.53
2022-12-04T20:55:54.188Z,102068.75
2022-12-04T20:58:20.720Z,102060.88
2022-12-04T21:00:47.512Z,102061.72
2022-12-04T21:03:14.142Z,102066.84
2022-12-04T21:05:40.623Z,102060.72
2022-12-04T21:08:08.336Z,102067.63
2022-12-04T21:10:34.936Z,102064.19
2022-12-04T21:13:19.738Z,102067.56
2022-12-04T21:16:01.276Z,102067.56
2022-12-04T21:18:27.796Z,102063.13
2022-12-04T21:20:54.152Z,102064.81
2022-12-04T21:23:20.529Z,102069.91
2022-12-04T21:25:46.879Z,102063.81
2022-12-04T21:28:13.229Z,102070.72
2022-12-04T21:30:39.698Z,102066.31
2022-12-04T21:33:06.064Z,102077.56
2022-12-04T21:35:32.450Z,102071.47
2022-12-04T21:37:58.818Z,102066.22
2022-12-04T21:40:25.241Z,102067.00
2022-12-04T21:42:51.668Z,102066.09
2022-12-04T21:45:18.111Z,102065.19
2022-12-04T21:47:45.112Z,102060.78
2022-12-04T21:50:11.486Z,102071.19
2022-12-04T21:52:37.893Z,102062.53
2022-12-04T21:55:05.125Z,102063.34
2022-12-04T21:57:31.572Z,102058.13
2022-12-04T21:59:58.362Z,102065.88
2022-12-04T22:02:24.981Z,102062.38
2022-12-04T22:04:51.559Z,102068.44
2022-12-04T22:07:17.982Z,102070.13
2022-12-04T22:09:44.503Z,102065.78
2022-12-04T22:12:26.852Z,102070.94
2022-12-04T22:14:57.137Z,102062.28
2022-12-04T22:17:23.533Z,102069.13
2022-12-04T22:19:49.918Z,102062.16
2022-12-04T22:22:16.289Z,102069.97
2022-12-04T22:24:42.790Z,102060.41
2022-12-04T22:27:14.711Z,102062.94
2022-12-04T22:29:50.361Z,102066.31
2022-12-04T22:32:17.617Z,102060.13
2022-12-04T22:34:44.084Z,102059.22
2022-12-04T22:37:10.463Z,102054.81
2022-12-04T22:39:36.821Z,102054.81
2022-12-04T22:42:03.260Z,102061.72
2022-12-04T22:44:29.584Z,102073.72
2022-12-04T22:46:55.916Z,102061.59
2022-12-04T22:49:22.450Z,102063.31
2022-12-04T22:51:48.878Z,102066.72
2022-12-04T22:54:15.214Z,102066.72
2022-12-04T22:56:43.436Z,102070.13
2022-12-04T22:59:09.977Z,102063.09
2022-12-04T23:01:36.738Z,102063.06
2022-12-04T23:04:04.153Z,102065.69
2022-12-04T23:06:33.115Z,102059.59
2022-12-04T23:09:02.165Z,102050.88
2022-12-04T23:11:28.883Z,102060.25
2022-12-04T23:14:00.059Z,102055.00
2022-12-04T23:16:29.750Z,102057.56
2022-12-04T23:18:56.909Z,102057.50
2022-12-04T23:21:24.727Z,102047.00
2022-12-04T23:23:53.035Z,102050.44
2022-12-04T23:26:21.843Z,102048.59
2022-12-04T23:28:48.534Z,102050.28
2022-12-04T23:31:15.508Z,102043.25
2022-12-04T23:33:42.200Z,102040.63
2022-12-04T23:36:11.249Z,102048.38
2022-12-04T23:38:39.387Z,102050.06
2022-12-04T23:41:07.301Z,102045.78
2022-12-04T23:43:34.889Z,102045.72
2022-12-04T23:46:03.458Z,102056.97
2022-12-04T23:48:33.866Z,102048.25
2022-12-04T23:51:00.301Z,102043.88
2022-12-04T23:53:27.488Z,102043.78
2022-12-04T23:55:59.142Z,102046.31
2022-12-04T23:58:25.819Z,102047.16
